createdAt,value
2023-05-13T00:00:02.458Z,93617.41
2023-05-13T00:02:28.830Z,93615.25
2023-05-13T00:04:55.346Z,93609.25
2023-05-13T00:07:21.745Z,93615.31
2023-05-13T00:09:53.308Z,93609.88
2023-05-13T00:12:19.689Z,93613.81
2023-05-13T00:14:46.137Z,93610.22
2023-05-13T00:17:12.532Z,93617.81
2023-05-13T00:19:38.954Z,93611.16
2023-05-13T00:22:05.351Z,93622.94
2023-05-13T00:24:31.776Z,93610.88
2023-05-13T00:26:58.086Z,93616.03
2023-05-13T00:29:24.431Z,93614.28
2023-05-13T00:31:51.763Z,93616.69
2023-05-13T00:34:19.294Z,93613.88
2023-05-13T00:36:45.689Z,93607.84
2023-05-13T00:39:12.046Z,93621.91
2023-05-13T00:41:50.516Z,93620.34
2023-05-13T00:44:16.834Z,93616.22
2023-05-13T00:46:43.711Z,93612.34
2023-05-13T00:49:10.261Z,93611.00
2023-05-13T00:51:36.595Z,93589.88
2023-05-13T00:54:03.000Z,93615.03
2023-05-13T00:56:30.589Z,93605.44
2023-05-13T00:58:56.924Z,93609.88
2023-05-13T01:01:35.901Z,93616.28
2023-05-13T01:04:02.287Z,93608.25
2023-05-13T01:06:32.693Z,93610.88
2023-05-13T01:09:17.544Z,93619.50
2023-05-13T01:11:44.282Z,93619.91
2023-05-13T01:14:19.279Z,93622.75
2023-05-13T01:16:48.695Z,93622.34
2023-05-13T01:19:30.267Z,93627.19
2023-05-13T01:21:56.690Z,93622.34
2023-05-13T01:24:23.137Z,93624.56
2023-05-13T01:26:49.489Z,93628.75
2023-05-13T01:29:16.277Z,93625.16
2023-05-13T01:31:42.965Z,93627.59
2023-05-13T01:34:11.398Z,93622.34
2023-05-13T01:36:38.662Z,93621.53
2023-05-13T01:39:05.308Z,93629.22
2023-05-13T01:41:33.697Z,93636.03
2023-05-13T01:43:59.993Z,93623.97
2023-05-13T01:46:26.449Z,93629.22
2023-05-13T01:48:58.613Z,93627.19
2023-05-13T01:51:24.950Z,93632.78
2023-05-13T01:53:51.261Z,93623.06
2023-05-13T01:56:22.101Z,93633.50
2023-05-13T01:58:48.537Z,93629.53
2023-05-13T02:01:14.960Z,93631.56
2023-05-13T02:03:41.388Z,93625.56
2023-05-13T02:06:07.785Z,93626.94
2023-05-13T02:08:34.089Z,93628.03
2023-05-13T02:11:00.596Z,93628.88
2023-05-13T02:13:26.919Z,93630.47
2023-05-13T02:15:56.584Z,93636.94
2023-05-13T02:18:23.073Z,93631.25
2023-05-13T02:20:49.398Z,93632.09
2023-05-13T02:23:16.744Z,93630.91
2023-05-13T02:25:43.325Z,93623.22
2023-05-13T02:28:10.534Z,93628.06
2023-05-13T02:30:36.904Z,93633.38
2023-05-13T02:33:03.406Z,93628.13
2023-05-13T02:35:30.182Z,93636.63
2023-05-13T02:37:57.221Z,93632.97
2023-05-13T02:40:23.702Z,93633.78
2023-05-13T02:42:50.681Z,93637.81
2023-05-13T02:45:17.087Z,93636.59
2023-05-13T02:47:44.134Z,93631.56
2023-05-13T02:50:12.367Z,93635.41
2023-05-13T02:52:41.706Z,93636.41
2023-05-13T02:55:09.229Z,93637.03
2023-05-13T02:57:36.346Z,93636.19
2023-05-13T03:00:03.173Z,93637.03
2023-05-13T03:02:29.574Z,93635.78
2023-05-13T03:04:56.564Z,93633.41
2023-05-13T03:07:23.881Z,93639.03
2023-05-13T03:09:59.283Z,93632.78
2023-05-13T03:12:25.620Z,93636.63
2023-05-13T03:14:51.978Z,93640.25
2023-05-13T03:17:20.446Z,93634.59
2023-05-13T03:19:46.800Z,93644.03
2023-05-13T03:22:18.261Z,93646.25
2023-05-13T03:24:44.703Z,93637.84
2023-05-13T03:27:11.048Z,93646.47
2023-05-13T03:29:41.415Z,93651.09
2023-05-13T03:32:07.805Z,93656.72
2023-05-13T03:34:36.232Z,93652.69
2023-05-13T03:37:02.556Z,93657.50
2023-05-13T03:39:33.005Z,93652.69
2023-05-13T03:41:59.354Z,93653.91
2023-05-13T03:44:25.693Z,93655.88
2023-05-13T03:46:52.068Z,93659.31
2023-05-13T03:49:19.057Z,93660.31
2023-05-13T03:51:45.482Z,93666.31
2023-05-13T03:54:11.890Z,93662.94
2023-05-13T03:56:41.368Z,93662.31
2023-05-13T03:59:07.785Z,93675.97
2023-05-13T04:01:34.713Z,93664.75
2023-05-13T04:04:01.042Z,93559.44
2023-05-13T04:06:27.362Z,93674.78
2023-05-13T04:08:53.673Z,93670.34
2023-05-13T04:11:20.084Z,93672.75
2023-05-13T04:13:46.427Z,93671.56
2023-05-13T04:16:16.455Z,93673.16
2023-05-13T04:18:42.870Z,93667.94
2023-05-13T04:21:09.763Z,93671.53
2023-05-13T04:23:36.123Z,93672.56
2023-05-13T04:26:02.449Z,93666.72
2023-05-13T04:28:28.869Z,93676.38
2023-05-13T04:30:55.407Z,93681.19
2023-05-13T04:33:21.722Z,93682.00
2023-05-13T04:35:48.320Z,93684.00
2023-05-13T04:38:14.642Z,93685.81
2023-05-13T04:40:43.544Z,93693.47
2023-05-13T04:43:10.069Z,93690.44
2023-05-13T04:45:37.016Z,93700.50
2023-05-13T04:48:03.507Z,93696.47
2023-05-13T04:50:29.904Z,93693.66
2023-05-13T04:52:56.828Z,93699.88
2023-05-13T04:55:27.774Z,93697.88
2023-05-13T04:57:54.286Z,93702.72
2023-05-13T05:00:20.965Z,93699.28
2023-05-13T05:02:47.638Z,93704.09
2023-05-13T05:05:14.660Z,93708.53
2023-05-13T05:07:42.590Z,93711.34
2023-05-13T05:10:09.196Z,93705.09
2023-05-13T05:12:35.563Z,93632.19
2023-05-13T05:15:01.847Z,93704.09
2023-05-13T05:17:32.598Z,93710.50
2023-05-13T05:19:59.732Z,93709.31
2023-05-13T05:22:29.093Z,93716.56
2023-05-13T05:24:55.448Z,93714.56
2023-05-13T05:27:21.784Z,93719.38
2023-05-13T05:29:48.125Z,93719.38
2023-05-13T05:32:14.454Z,93715.16
2023-05-13T05:34:41.008Z,93724.19
2023-05-13T05:37:07.545Z,93725.38
2023-05-13T05:39:35.429Z,93727.41
2023-05-13T05:42:02.067Z,93729.81
2023-05-13T05:44:28.444Z,93726.22
2023-05-13T05:46:55.270Z,93733.03
2023-05-13T05:49:22.630Z,93733.03
2023-05-13T05:51:49.015Z,93734.25
2023-05-13T05:54:16.458Z,93736.28
2023-05-13T05:56:42.775Z,93729.03
2023-05-13T05:59:09.105Z,93737.06
2023-05-13T06:01:36.835Z,93739.28
2023-05-13T06:04:04.000Z,93740.69
2023-05-13T06:06:30.723Z,93738.47
2023-05-13T06:08:57.045Z,93741.28
2023-05-13T06:11:23.382Z,93740.66
2023-05-13T06:13:49.848Z,93739.88
2023-05-13T06:16:16.373Z,93741.88
2023-05-13T06:18:43.233Z,93741.28
2023-05-13T06:21:09.829Z,93743.50
2023-05-13T06:23:36.153Z,93737.84
2023-05-13T06:26:09.709Z,93740.06
2023-05-13T06:28:36.043Z,93740.66
2023-05-13T06:31:02.911Z,93744.50
2023-05-13T06:33:29.358Z,93745.91
2023-05-13T06:35:55.727Z,93748.34
2023-05-13T06:38:22.219Z,93751.53
2023-05-13T06:40:48.540Z,93751.94
2023-05-13T06:43:16.536Z,93749.09
2023-05-13T06:45:43.105Z,93753.72
2023-05-13T06:48:09.594Z,93753.53
2023-05-13T06:50:37.003Z,93749.50
2023-05-13T06:53:03.355Z,93745.09
2023-05-13T06:55:30.875Z,93749.50
2023-05-13T06:57:57.196Z,93753.13
2023-05-13T07:00:23.958Z,93749.09
2023-05-13T07:02:50.504Z,93754.31
2023-05-13T07:05:16.935Z,93747.91
2023-05-13T07:07:43.460Z,93749.91
2023-05-13T07:10:09.997Z,93754.72
2023-05-13T07:12:36.361Z,93756.75
2023-05-13T07:15:03.840Z,93759.97
2023-05-13T07:17:31.400Z,93761.19
2023-05-13T07:19:58.081Z,93764.00
2023-05-13T07:22:24.521Z,93764.41
2023-05-13T07:24:50.876Z,93763.22
2023-05-13T07:27:17.210Z,93762.38
2023-05-13T07:29:43.514Z,93764.81
2023-05-13T07:32:09.957Z,93764.81
2023-05-13T07:34:36.463Z,93765.19
2023-05-13T07:37:04.504Z,93769.22
2023-05-13T07:39:30.859Z,93772.44
2023-05-13T07:41:57.182Z,93767.22
2023-05-13T07:44:23.512Z,93768.41
2023-05-13T07:46:53.292Z,93768.41
2023-05-13T07:49:20.379Z,93769.19
2023-05-13T07:51:47.216Z,93767.56
2023-05-13T07:54:13.630Z,93769.19
2023-05-13T07:56:40.313Z,93766.59
2023-05-13T07:59:06.652Z,93767.59
2023-05-13T08:01:33.001Z,93768.00
2023-05-13T08:03:59.432Z,93768.81
2023-05-13T08:06:26.016Z,93770.81
2023-05-13T08:08:52.333Z,93766.81
2023-05-13T08:11:19.683Z,93763.59
2023-05-13T08:13:46.149Z,93768.00
2023-05-13T08:16:14.644Z,93777.03
2023-05-13T08:18:43.136Z,93783.28
2023-05-13T08:21:10.522Z,93782.91
2023-05-13T08:23:45.592Z,93778.47
2023-05-13T08:26:18.707Z,93776.66
2023-05-13T08:28:45.049Z,93783.28
2023-05-13T08:31:19.566Z,93782.91
2023-05-13T08:33:48.551Z,93782.09
2023-05-13T08:36:17.107Z,93787.69
2023-05-13T08:38:43.671Z,93776.44
2023-05-13T09:12:44.568Z,93790.72
2023-05-13T09:15:12.956Z,93791.13
2023-05-13T09:17:45.445Z,93805.28
2023-05-13T09:20:13.016Z,93797.63
2023-05-13T09:22:41.092Z,93787.97
2023-05-13T09:25:15.956Z,93784.03
2023-05-13T09:27:43.608Z,93787.91
2023-05-13T09:30:11.521Z,93785.13
2023-05-13T17:31:16.018Z,93800.69
2023-05-13T17:33:42.438Z,93796.84
2023-05-13T17:36:11.878Z,93796.03
2023-05-13T17:38:39.379Z,93796.88
2023-05-13T17:41:06.832Z,93807.19
2023-05-13T17:43:33.214Z,93801.75
2023-05-13T17:46:00.613Z,93811.66
2023-05-13T17:48:27.108Z,93796.72
2023-05-13T17:50:59.560Z,93799.06
2023-05-13T17:53:26.167Z,93798.97
2023-05-13T17:55:53.796Z,93804.63
2023-05-13T17:58:22.241Z,93794.13
2023-05-13T18:00:48.926Z,93804.44
2023-05-13T18:03:15.547Z,93796.19
2023-05-13T18:05:41.948Z,93792.09
2023-05-13T18:08:08.282Z,93795.66
2023-05-13T18:10:35.852Z,93811.56
2023-05-13T18:13:02.886Z,93800.22
2023-05-13T18:15:29.335Z,93806.56
2023-05-13T18:17:55.876Z,93803.94
2023-05-13T18:20:22.447Z,93804.78
2023-05-13T18:22:52.055Z,93806.41
2023-05-13T18:25:55.038Z,93798.38
2023-05-13T18:28:22.134Z,93809.09
2023-05-13T18:30:49.540Z,93802.84
2023-05-13T18:33:15.882Z,93798.78
2023-05-13T18:35:46.013Z,93792.56
2023-05-13T18:38:13.375Z,93797.38
2023-05-13T18:40:49.237Z,93796.38
2023-05-13T18:43:16.632Z,93796.00
2023-05-13T18:45:45.322Z,93791.13
2023-05-13T18:48:13.851Z,93800.88
2023-05-13T18:50:41.390Z,93810.19
2023-05-13T18:53:09.815Z,93808.38
2023-05-13T18:55:37.201Z,93807.00
2023-05-13T18:58:04.536Z,93813.41
2023-05-13T19:00:30.832Z,93808.16
2023-05-13T19:03:02.293Z,93817.84
2023-05-13T19:05:30.820Z,93818.84
2023-05-13T19:07:57.234Z,93816.22
2023-05-13T19:10:23.661Z,93825.50
2023-05-13T19:12:50.313Z,93821.69
2023-05-13T19:15:16.879Z,93831.34
2023-05-13T19:17:43.169Z,93832.75
2023-05-13T19:20:09.735Z,93833.34
2023-05-13T19:22:36.122Z,93838.38
2023-05-13T19:25:02.413Z,93838.78
2023-05-13T19:27:29.730Z,93851.06
2023-05-13T19:29:56.033Z,93850.88
2023-05-13T19:32:22.367Z,93846.84
2023-05-13T19:34:48.646Z,93848.25
2023-05-13T19:37:15.408Z,93851.28
2023-05-13T19:39:43.712Z,93844.41
2023-05-13T19:42:10.056Z,93851.66
2023-05-13T19:44:36.424Z,93848.88
2023-05-13T19:47:02.857Z,93849.63
2023-05-13T19:49:30.351Z,93836.97
2023-05-13T19:51:57.426Z,93842.41
2023-05-13T19:54:23.767Z,93842.81
2023-05-13T19:56:53.250Z,93845.22
2023-05-13T19:59:21.731Z,93838.78
2023-05-13T20:01:50.777Z,93838.59
2023-05-13T20:04:17.096Z,93835.97
2023-05-13T20:06:43.380Z,93838.78
2023-05-13T20:09:11.847Z,93841.59
2023-05-13T20:11:39.210Z,93834.75
2023-05-13T20:14:05.486Z,93835.56
2023-05-13T20:16:31.844Z,93844.41
2023-05-13T20:18:59.320Z,93840.38
2023-05-13T20:21:25.711Z,93838.00
2023-05-13T20:23:53.045Z,93832.97
2023-05-13T20:26:19.319Z,93833.56
2023-05-13T20:28:47.680Z,93832.78
2023-05-13T20:31:16.142Z,93829.53
2023-05-13T20:33:42.493Z,93824.50
2023-05-13T20:36:08.828Z,93822.28
2023-05-13T20:38:35.187Z,93827.94
2023-05-13T20:41:01.484Z,93824.31
2023-05-13T20:43:27.897Z,93821.69
2023-05-13T20:45:54.413Z,93821.09
2023-05-13T20:48:20.759Z,93824.31
2023-05-13T20:50:47.047Z,93823.50
2023-05-13T20:53:14.297Z,93816.66
2023-05-13T20:55:40.586Z,93818.28
2023-05-13T20:58:06.859Z,93816.28
2023-05-13T21:00:33.210Z,93821.09
2023-05-13T21:02:59.667Z,93817.06
2023-05-13T21:05:27.049Z,93810.66
2023-05-13T21:07:53.952Z,93809.81
2023-05-13T21:10:20.379Z,93805.81
2023-05-13T21:12:48.005Z,93806.22
2023-05-13T21:15:14.704Z,93809.81
2023-05-13T21:17:41.163Z,93808.22
2023-05-13T21:20:07.956Z,93806.59
2023-05-13T21:22:34.219Z,93802.38
2023-05-13T21:25:00.515Z,93802.81
2023-05-13T21:27:27.948Z,93751.53
2023-05-13T21:29:54.405Z,93803.41
2023-05-13T21:32:20.738Z,93800.56
2023-05-13T21:34:49.036Z,93803.59
2023-05-13T21:37:16.708Z,93808.81
2023-05-13T21:39:43.018Z,93803.34
2023-05-13T21:42:09.304Z,93805.97
2023-05-13T21:44:35.602Z,93807.59
2023-05-13T21:47:01.906Z,93805.38
2023-05-13T21:49:28.228Z,93804.59
2023-05-13T21:51:54.542Z,93813.41
2023-05-13T21:54:20.868Z,93803.78
2023-05-13T21:56:47.228Z,93800.97
2023-05-13T21:59:13.524Z,93804.97
2023-05-13T22:01:39.862Z,93796.75
2023-05-13T22:04:07.277Z,93793.94
2023-05-13T22:06:33.575Z,93799.38
2023-05-13T22:09:01.136Z,93797.34
2023-05-13T22:11:27.791Z,93789.31
2023-05-13T22:13:54.173Z,93792.75
2023-05-13T22:16:20.661Z,93794.56
2023-05-13T22:18:48.837Z,93786.09
2023-05-13T22:21:15.288Z,93791.31
2023-05-13T22:23:41.551Z,93790.94
2023-05-13T22:26:07.859Z,93786.53
2023-05-13T22:28:34.239Z,93781.28
2023-05-13T22:31:00.635Z,93779.69
2023-05-13T22:33:26.966Z,93787.31
2023-05-13T22:35:53.318Z,93775.25
2023-05-13T22:38:19.604Z,93778.88
2023-05-13T22:40:45.942Z,93779.69
2023-05-13T22:43:12.207Z,93776.03
2023-05-13T22:45:38.524Z,93774.84
2023-05-13T22:48:04.921Z,93772.25
2023-05-13T22:50:31.285Z,93774.25
2023-05-13T22:52:57.624Z,93767.22
2023-05-13T22:55:23.925Z,93765.00
2023-05-13T22:57:50.197Z,93764.00
2023-05-13T23:00:16.720Z,93756.16
2023-05-13T23:02:43.083Z,93760.78
2023-05-13T23:05:09.951Z,93762.38
2023-05-13T23:07:36.377Z,93756.75
2023-05-13T23:10:02.716Z,93752.56
2023-05-13T23:12:29.028Z,93750.13
2023-05-13T23:14:55.367Z,93748.31
2023-05-13T23:17:21.660Z,93743.91
2023-05-13T23:19:47.947Z,93741.06
2023-05-13T23:22:14.261Z,93735.03
2023-05-13T23:24:40.519Z,93738.66
2023-05-13T23:27:06.834Z,93741.88
2023-05-13T23:29:33.135Z,93737.88
2023-05-13T23:31:59.449Z,93736.66
2023-05-13T23:34:25.783Z,93740.28
2023-05-13T23:36:52.136Z,93729.84
2023-05-13T23:39:19.257Z,93740.69
2023-05-13T23:41:45.638Z,93733.44
2023-05-13T23:44:12.103Z,93731.84
2023-05-13T23:46:38.468Z,93733.41
2023-05-13T23:49:04.728Z,93728.63
2023-05-13T23:51:31.947Z,93738.06
2023-05-13T23:53:58.686Z,93725.41
2023-05-13T23:56:24.971Z,93724.81
2023-05-13T23:58:51.278Z,93728.81
